Braidwood, Illinois
Current Conditions -  °F | °C
As of 4:15 PM on Friday 24 Oct 2014 (Local Time) from KC09 Reporting Station
Clear Clear  
Wind Chill: 69°   Ceiling: Unl
Heat Index: 69°   Visibility: 10mi
Dew Point: 49°   Wind: 5mph
Humidity: 49%   Direction: 230°SW
Pressure: 29.96"   Gusts: NA
Location:  41.27°N, 88.21°W
Report Text: KC09 242115Z AUTO 23004KT 10SM CLR 21/09 A2996 RMK AO2 T02060094
Loading
Personal Weather Stations






























Interactive Weather Map
Tropical Storm Tracking
New forecast layout! Learn more

10-Day Weather Forecast

Advertisements
Track Severe Weather on mobile